Skip Navigation Links
NOAA logo - Click to go to the NOAA homepage
NOAA's National Weather Service
Alaska Aviation Weather Unit
  NWS logo - Click to go to the NWS homepage
Left Navbar Graphic     01 AKDT = 09 GMT

   
NOAA is celebrating 200 years of science, service, and stewardship. Visit the NOAA 200th celebration Web site to learn more.
USA.gov is the U.S. Government's official Web portal to all Federal, state and local government Web resources and services.
Facebook
NWS on Facebook

Important Change Regarding the AAWU Web Presence

 

Over the last several months, the AAWU has been working to navigate its webpages to a nationally supported server. Security, as well as other needs, have necessitated the change.  We have been given an extension for the site changeover while we diligently work at addressing feedback received. As of July 14, 2017, aawu.arh.noaa.gov will be discontinued. The new AAWU web address is weather.gov/aawu. It is now live and will run in-parallel with the old site until it is discontinued on July 14, 2017. Please continue to send any feedback or questions regarding the new webpages to nws.ar.aawu.webauthors@noaa.gov.  Thank you for your patience during this time of transition.
AAWU Home :: Display TAF Add Bookmark
METAR PAGN 190356Z AUTO 00000KT 10SM BKN055 OVC070 12/11 A3002 RMK
 AO2 SLP154 T01170106=

METAR PAGN 190456Z AUTO 00000KT 10SM BKN050 OVC070 12/11 A3003 RMK AO2
     SLP158 T01170106=

METAR PAGN 190556Z AUTO 00000KT 10SM BKN045 OVC055 11/11 A3003 RMK
 AO2 RAB07E31 SLP160 P0000 60000 T01110106 10133 20111 51008=

METAR PAGN 190656Z AUTO 00000KT 4SM BR OVC045 11/10 A3005 RMK AO2
 RAB24E34 SLP164 P0000 T01060100=

SPECI PAGN 190707Z AUTO 00000KT 2 1/2SM BR OVC047 11/10 A3005 RMK
     AO2=

SPECI PAGN 190716Z AUTO 00000KT 3SM BR BKN043 OVC055 11/10 A3005 RMK
     AO2=

SPECI PAGN 190733Z AUTO 00000KT 2 1/2SM BR FEW043 OVC060 11/10 A3005 RMK
     AO2=

SPECI PAGN 190742Z AUTO 00000KT 5SM BR OVC055 11/10 A3005 RMK AO2=

METAR PAGN 190756Z AUTO 00000KT 4SM BR OVC060 11/10 A3005 RMK AO2 SLP166
     T01060100=

SPECI PAGN 190808Z AUTO 00000KT 2 1/2SM BR BKN050 OVC060 11/10 A3005 RMK
     AO2=

SPECI PAGN 190816Z AUTO 00000KT 3SM BR FEW050 BKN060 OVC075 11/10 A3005
     RMK AO2=

SPECI PAGN 190822Z AUTO 00000KT 1 3/4SM BR BKN055 OVC075 11/10 A3005
 RMK AO2=

SPECI PAGN 190838Z AUTO 00000KT 3SM BR BKN060 OVC075 11/10 A3006 RMK
 AO2=

METAR PAGN 190856Z AUTO 00000KT 4SM BR OVC060 11/10 A3006 RMK AO2 SLP167
     60000 T01060100 401500106 51008=


NOAA's National Weather Service
Alaska Aviation Weather Unit
6930 Sand Lake Road
Anchorage, AK 99502-1845
Disclaimer
Credits
Glossary
Privacy Policy
About Us
Career Opportunities
Contact AAWU Internet Services Site last modified: April, 17th 2012